createdAt,value
2022-12-05T00:01:47.857Z,54.28
2022-12-05T00:04:16.298Z,50.75
2022-12-05T00:06:45.290Z,46.85
2022-12-05T00:09:14.608Z,45.95
2022-12-05T00:11:44.622Z,47.13
2022-12-05T00:14:13.832Z,51.63
2022-12-05T00:16:43.318Z,46.47
2022-12-05T00:19:14.986Z,48.40
2022-12-05T00:21:43.180Z,46.30
2022-12-05T00:24:14.485Z,49.83
2022-12-05T00:26:42.545Z,51.45
2022-12-05T00:29:11.110Z,54.40
2022-12-05T00:31:39.367Z,51.53
2022-12-05T00:34:07.950Z,57.90
2022-12-05T00:36:37.935Z,52.75
2022-12-05T00:39:08.605Z,51.40
2022-12-05T00:41:36.775Z,58.90
2022-12-05T00:44:06.126Z,57.17
2022-12-05T00:46:34.995Z,54.28
2022-12-05T00:49:05.529Z,58.85
2022-12-05T00:51:35.815Z,58.63
2022-12-05T00:54:07.405Z,52.70
2022-12-05T00:59:04.837Z,65.25
2022-12-05T01:01:34.831Z,61.25
2022-12-05T01:04:06.199Z,62.83
2022-12-05T01:06:34.682Z,54.60
2022-12-05T01:09:04.087Z,65.82
2022-12-05T01:11:37.759Z,58.17
2022-12-05T01:14:09.382Z,60.08
2022-12-05T01:16:39.082Z,54.72
2022-12-05T01:19:12.062Z,56.33
2022-12-05T01:21:40.133Z,55.28
2022-12-05T01:24:09.139Z,53.78
2022-12-05T01:26:38.944Z,57.22
2022-12-05T01:29:07.325Z,56.45
2022-12-05T01:31:37.991Z,56.65
2022-12-05T01:34:09.121Z,55.88
2022-12-05T01:36:39.361Z,51.65
2022-12-05T01:39:08.285Z,57.90
2022-12-05T01:41:38.931Z,52.65
2022-12-05T01:44:08.663Z,59.50
2022-12-05T01:46:38.565Z,54.85
2022-12-05T01:49:11.145Z,56.53
2022-12-05T01:51:40.735Z,57.00
2022-12-05T01:54:09.575Z,55.03
2022-12-05T01:56:40.980Z,53.72
2022-12-05T01:59:11.212Z,54.80
2022-12-05T02:01:39.954Z,55.88
2022-12-05T02:04:08.554Z,49.70
2022-12-05T02:06:36.833Z,50.60
2022-12-05T02:09:05.307Z,57.05
2022-12-05T02:11:34.829Z,53.72
2022-12-05T02:14:20.159Z,62.67
2022-12-05T02:17:01.457Z,64.53
2022-12-05T02:19:56.353Z,54.20
2022-12-05T02:22:49.883Z,55.90
2022-12-05T02:25:50.939Z,57.30
2022-12-05T02:28:45.682Z,52.75
2022-12-05T02:31:18.172Z,54.30
2022-12-05T02:33:49.522Z,49.10
2022-12-05T02:36:22.071Z,55.55
2022-12-05T02:38:54.157Z,53.13
2022-12-05T02:41:26.155Z,51.35
2022-12-05T02:43:57.418Z,45.80
2022-12-05T02:46:29.505Z,49.58
2022-12-05T02:49:00.462Z,47.83
2022-12-05T02:54:03.009Z,46.05
2022-12-05T02:56:33.956Z,44.37
2022-12-05T02:59:02.683Z,43.72
2022-12-05T03:01:33.433Z,43.53
2022-12-05T03:04:04.513Z,42.78
2022-12-05T03:09:04.081Z,42.83
2022-12-05T03:11:37.256Z,42.00
2022-12-05T03:14:08.396Z,45.38
2022-12-05T03:16:41.029Z,42.22
2022-12-05T03:19:14.017Z,42.97
2022-12-05T03:21:44.728Z,43.42
2022-12-05T03:24:15.207Z,45.70
2022-12-05T03:26:49.845Z,45.38
2022-12-05T03:29:31.379Z,47.28
2022-12-05T03:32:08.036Z,48.05
2022-12-05T03:34:44.632Z,48.35
2022-12-05T03:37:17.490Z,52.83
2022-12-05T03:39:49.670Z,48.67
2022-12-05T03:42:20.677Z,49.58
2022-12-05T03:44:52.729Z,51.70
2022-12-05T03:47:27.251Z,48.40
2022-12-05T03:49:58.551Z,53.47
2022-12-05T03:52:37.999Z,49.78
2022-12-05T03:55:19.356Z,45.17
2022-12-05T03:57:52.464Z,42.55
2022-12-05T04:00:22.463Z,43.25
2022-12-05T04:02:56.682Z,44.15
2022-12-05T04:05:27.349Z,44.72
2022-12-05T04:08:00.029Z,42.17
2022-12-05T04:10:30.851Z,39.40
2022-12-05T04:13:17.997Z,38.42
2022-12-05T04:16:08.985Z,40.50
2022-12-05T04:18:43.108Z,42.13
2022-12-05T04:21:29.662Z,42.90
2022-12-05T04:24:15.410Z,48.33
2022-12-05T04:26:47.758Z,54.90
2022-12-05T04:29:19.919Z,59.30
2022-12-05T04:31:51.698Z,44.38
2022-12-05T04:34:22.920Z,50.88
2022-12-05T04:36:54.772Z,50.67
2022-12-05T04:39:25.830Z,46.45
2022-12-05T04:41:55.293Z,37.60
2022-12-05T04:44:26.789Z,43.67
2022-12-05T04:49:26.926Z,45.90
2022-12-05T04:51:57.547Z,48.85
2022-12-05T04:54:29.393Z,95.20
2022-12-05T04:57:05.443Z,51.15
2022-12-05T04:59:33.875Z,46.33
2022-12-05T05:02:05.816Z,112.18
2022-12-05T05:04:38.806Z,50.03
2022-12-05T05:07:08.378Z,48.65
2022-12-05T05:09:37.328Z,41.22
2022-12-05T05:12:06.368Z,46.30
2022-12-05T05:14:34.809Z,51.75
2022-12-05T05:17:03.130Z,43.05
2022-12-05T05:19:32.037Z,45.53
2022-12-05T05:22:01.628Z,41.58
2022-12-05T05:24:30.086Z,49.97
2022-12-05T05:26:58.263Z,43.58
2022-12-05T05:29:26.680Z,46.42
2022-12-05T05:31:54.851Z,46.55
2022-12-05T05:34:23.350Z,58.35
2022-12-05T05:36:53.168Z,48.58
2022-12-05T05:39:22.931Z,43.00
2022-12-05T05:41:51.124Z,48.28
2022-12-05T05:44:19.634Z,45.80
2022-12-05T05:46:47.834Z,49.63
2022-12-05T05:49:16.166Z,39.55
2022-12-05T05:51:44.257Z,45.88
2022-12-05T05:54:12.646Z,45.67
2022-12-05T05:56:42.596Z,42.72
2022-12-05T05:59:10.923Z,40.38
2022-12-05T06:01:39.028Z,45.00
2022-12-05T06:04:07.936Z,41.50
2022-12-05T06:06:36.464Z,48.20
2022-12-05T06:09:07.307Z,44.58
2022-12-05T06:11:35.378Z,48.70
2022-12-05T06:14:05.231Z,47.40
2022-12-05T06:16:33.668Z,48.58
2022-12-05T06:19:02.147Z,56.80
2022-12-05T06:21:30.245Z,51.65
2022-12-05T06:23:58.793Z,54.85
2022-12-05T06:26:26.919Z,50.67
2022-12-05T06:28:55.617Z,51.17
2022-12-05T06:31:31.115Z,51.88
2022-12-05T06:34:01.986Z,46.53
2022-12-05T06:36:30.348Z,52.28
2022-12-05T06:38:59.223Z,48.58
2022-12-05T06:41:28.010Z,53.50
2022-12-05T06:44:01.927Z,52.83
2022-12-05T06:46:32.017Z,59.20
2022-12-05T06:49:00.547Z,60.03
2022-12-05T06:51:28.788Z,53.88
2022-12-05T06:53:57.486Z,55.95
2022-12-05T06:56:25.554Z,50.50
2022-12-05T06:58:55.758Z,52.90
2022-12-05T07:01:40.816Z,53.78
2022-12-05T07:04:13.327Z,51.75
2022-12-05T07:06:48.695Z,45.95
2022-12-05T07:09:19.785Z,45.65
2022-12-05T07:11:48.786Z,41.55
2022-12-05T07:14:38.737Z,46.50
2022-12-05T07:17:06.244Z,40.30
2022-12-05T07:19:36.061Z,46.53
2022-12-05T07:22:04.302Z,48.05
2022-12-05T07:24:32.618Z,44.50
2022-12-05T07:27:00.747Z,52.08
2022-12-05T07:29:29.227Z,45.35
2022-12-05T07:31:57.397Z,48.60
2022-12-05T07:34:26.393Z,51.35
2022-12-05T07:36:55.891Z,51.90
2022-12-05T07:39:24.219Z,52.78
2022-12-05T07:41:52.361Z,49.50
2022-12-05T07:44:20.618Z,50.33
2022-12-05T07:46:48.963Z,56.83
2022-12-05T07:49:17.363Z,56.60
2022-12-05T07:51:45.573Z,52.67
2022-12-05T07:54:15.384Z,51.17
2022-12-05T07:56:47.713Z,45.38
2022-12-05T07:59:16.659Z,48.05
2022-12-05T08:01:44.813Z,53.55
2022-12-05T08:04:15.595Z,47.05
2022-12-05T08:06:44.281Z,42.72
2022-12-05T08:09:12.943Z,45.40
2022-12-05T08:11:42.423Z,41.90
2022-12-05T08:14:11.452Z,40.95
2022-12-05T08:16:39.692Z,39.33
2022-12-05T08:19:09.311Z,56.25
2022-12-05T08:21:37.514Z,44.85
2022-12-05T08:24:06.746Z,40.00
2022-12-05T08:26:36.122Z,53.15
2022-12-05T08:29:08.018Z,44.08
2022-12-05T08:31:37.854Z,38.40
2022-12-05T08:34:06.371Z,39.45
2022-12-05T08:36:34.469Z,42.85
2022-12-05T08:39:05.419Z,35.47
2022-12-05T08:41:34.511Z,39.28
2022-12-05T08:44:05.772Z,40.90
2022-12-05T08:46:35.178Z,35.95
2022-12-05T08:49:04.074Z,60.45
2022-12-05T08:51:32.228Z,47.22
2022-12-05T08:54:03.276Z,38.58
2022-12-05T08:56:32.959Z,40.38
2022-12-05T08:59:05.828Z,40.00
2022-12-05T09:01:38.795Z,41.53
2022-12-05T09:04:08.377Z,38.40
2022-12-05T09:06:37.276Z,44.22
2022-12-05T09:09:08.024Z,36.22
2022-12-05T09:11:38.086Z,41.28
2022-12-05T09:14:06.955Z,37.53
2022-12-05T09:16:39.137Z,40.05
2022-12-05T09:19:13.324Z,69.38
2022-12-05T09:21:41.410Z,50.70
2022-12-05T09:24:11.650Z,40.10
2022-12-05T09:26:40.435Z,35.85
2022-12-05T09:29:15.816Z,43.22
2022-12-05T09:31:46.997Z,37.97
2022-12-05T09:34:15.755Z,38.35
2022-12-05T09:36:44.297Z,37.67
2022-12-05T09:39:12.887Z,36.08
2022-12-05T09:42:05.852Z,35.22
2022-12-05T09:44:42.648Z,31.25
2022-12-05T09:47:19.026Z,33.83
2022-12-05T09:49:51.511Z,31.33
2022-12-05T09:52:26.405Z,33.50
2022-12-05T09:54:55.353Z,33.50
2022-12-05T09:57:33.612Z,31.63
2022-12-05T10:00:04.811Z,37.45
2022-12-05T10:02:42.985Z,38.80
2022-12-05T10:05:17.061Z,46.90
2022-12-05T10:07:50.691Z,33.00
2022-12-05T10:10:27.149Z,35.15
2022-12-05T10:13:04.814Z,34.53
2022-12-05T10:15:35.748Z,28.45
2022-12-05T10:18:12.556Z,31.25
2022-12-05T10:20:46.005Z,27.65
2022-12-05T10:23:34.521Z,29.50
2022-12-05T10:26:09.112Z,26.73
2022-12-05T10:28:40.876Z,29.42
2022-12-05T10:31:11.527Z,31.13
2022-12-05T10:33:44.461Z,29.47
2022-12-05T10:36:14.216Z,26.20
2022-12-05T10:38:43.559Z,30.90
2022-12-05T10:41:14.196Z,30.20
2022-12-05T10:43:44.358Z,25.50
2022-12-05T10:46:17.283Z,27.30
2022-12-05T10:48:47.062Z,27.02
2022-12-05T10:51:18.188Z,31.85
2022-12-05T10:53:50.115Z,30.98
2022-12-05T10:56:41.074Z,30.27
2022-12-05T10:59:10.103Z,34.67
2022-12-05T11:01:39.584Z,35.65
2022-12-05T11:04:18.994Z,205.20
2022-12-05T11:06:55.522Z,64.10
2022-12-05T11:09:25.058Z,37.08
2022-12-05T11:12:15.290Z,34.47
2022-12-05T11:14:55.610Z,39.30
2022-12-05T11:17:26.931Z,37.05
2022-12-05T11:19:56.555Z,38.95
2022-12-05T11:22:33.195Z,42.85
2022-12-05T11:25:01.564Z,41.45
2022-12-05T11:27:31.926Z,34.90
2022-12-05T11:30:03.201Z,36.78
2022-12-05T11:32:33.459Z,37.42
2022-12-05T11:35:14.686Z,35.20
2022-12-05T11:37:46.383Z,38.35
2022-12-05T11:40:18.155Z,38.10
2022-12-05T11:43:06.404Z,39.53
2022-12-05T11:45:45.893Z,34.20
2022-12-05T11:48:27.887Z,38.72
2022-12-05T11:51:10.075Z,31.08
2022-12-05T11:53:48.823Z,34.25
2022-12-05T11:56:27.574Z,32.63
2022-12-05T11:59:18.893Z,34.63
2022-12-05T12:01:55.036Z,31.17
2022-12-05T12:04:36.243Z,32.50
2022-12-05T12:07:17.056Z,26.60
2022-12-05T12:09:51.075Z,39.47
2022-12-05T12:12:26.282Z,29.83
2022-12-05T12:15:01.312Z,27.70
2022-12-05T12:17:36.119Z,32.78
2022-12-05T12:20:22.648Z,32.88
2022-12-05T12:23:06.936Z,31.02
2022-12-05T12:25:44.042Z,30.58
2022-12-05T12:28:25.903Z,36.50
2022-12-05T12:31:03.704Z,34.00
2022-12-05T12:33:35.997Z,27.77
2022-12-05T12:36:13.134Z,33.58
2022-12-05T12:38:52.552Z,35.55
2022-12-05T12:41:34.378Z,43.85
2022-12-05T12:46:44.680Z,32.38
2022-12-05T12:49:33.315Z,31.98
2022-12-05T12:52:03.721Z,37.97
2022-12-05T12:55:03.893Z,38.55
2022-12-05T12:57:56.552Z,41.47
2022-12-05T13:02:57.363Z,68.53
2022-12-05T13:05:34.053Z,343.05
2022-12-05T13:08:06.231Z,149.50
2022-12-05T13:10:39.653Z,148.70
2022-12-05T13:13:09.871Z,40.60
2022-12-05T13:15:41.750Z,38.50
2022-12-05T13:18:16.169Z,34.47
2022-12-05T13:20:44.875Z,219.93
2022-12-05T13:23:14.490Z,48.53
2022-12-05T13:25:48.198Z,327.30
2022-12-05T13:28:35.484Z,47.97
2022-12-05T13:31:04.978Z,37.30
2022-12-05T13:33:35.869Z,44.53
2022-12-05T13:36:28.034Z,42.88
2022-12-05T13:39:18.213Z,36.55
2022-12-05T13:42:07.436Z,33.95
2022-12-05T13:44:41.584Z,37.58
2022-12-05T13:47:23.095Z,48.78
2022-12-05T13:49:54.325Z,39.38
2022-12-05T13:52:25.400Z,37.38
2022-12-05T13:57:51.493Z,45.42
2022-12-05T14:00:26.475Z,38.97
2022-12-05T14:02:56.958Z,39.92
2022-12-05T14:05:39.768Z,106.75
2022-12-05T14:08:47.571Z,37.45
2022-12-05T14:11:16.226Z,40.10
2022-12-05T14:13:46.298Z,41.10
2022-12-05T14:16:45.132Z,42.07
2022-12-05T14:19:35.007Z,40.08
2022-12-05T14:22:14.527Z,39.20
2022-12-05T14:24:50.693Z,41.28
2022-12-05T14:27:21.749Z,40.80
2022-12-05T14:30:00.547Z,46.20
2022-12-05T14:32:31.769Z,42.60
2022-12-05T14:35:05.493Z,49.53
2022-12-05T14:37:35.995Z,48.88
2022-12-05T14:40:19.574Z,44.00
2022-12-05T14:42:54.197Z,46.13
2022-12-05T14:45:29.428Z,54.50
2022-12-05T14:47:59.003Z,52.17
2022-12-05T14:50:40.924Z,54.33
2022-12-05T14:53:32.022Z,54.22
2022-12-05T14:56:08.058Z,99.10
2022-12-05T14:58:40.015Z,69.70
2022-12-05T15:01:16.323Z,129.88
2022-12-05T15:04:07.949Z,133.82
2022-12-05T15:06:38.817Z,71.88
2022-12-05T15:09:39.210Z,65.57
2022-12-05T15:12:11.801Z,69.60
2022-12-05T15:14:46.461Z,55.88
2022-12-05T15:17:17.638Z,58.13
2022-12-05T15:19:50.626Z,52.13
2022-12-05T15:22:21.240Z,60.45
2022-12-05T15:24:49.601Z,53.80
2022-12-05T15:27:17.938Z,54.92
2022-12-05T15:29:46.406Z,54.17
2022-12-05T15:32:26.279Z,53.50
2022-12-05T15:34:59.087Z,49.17
2022-12-05T15:37:30.139Z,56.88
2022-12-05T15:40:00.630Z,53.75
2022-12-05T15:42:31.285Z,54.15
2022-12-05T15:45:21.145Z,49.38
2022-12-05T15:47:52.309Z,54.72
2022-12-05T15:50:25.483Z,51.20
2022-12-05T15:53:00.013Z,56.17
2022-12-05T15:55:32.788Z,57.25
2022-12-05T15:58:23.532Z,50.65
2022-12-05T16:00:55.700Z,77.22
2022-12-05T16:03:27.491Z,88.03
2022-12-05T16:05:57.988Z,61.83
2022-12-05T16:08:30.334Z,69.80
2022-12-05T16:10:58.850Z,60.40
2022-12-05T16:13:28.483Z,55.08
2022-12-05T16:15:57.800Z,83.45
2022-12-05T16:18:29.434Z,142.73
2022-12-05T16:20:58.317Z,108.03
2022-12-05T16:23:30.153Z,72.82
2022-12-05T16:26:21.677Z,56.17
2022-12-05T16:28:58.714Z,55.38
2022-12-05T16:31:27.395Z,62.30
2022-12-05T16:34:05.094Z,60.33
2022-12-05T16:36:33.693Z,52.65
2022-12-05T16:39:03.417Z,53.80
2022-12-05T16:41:36.332Z,53.28
2022-12-05T16:44:13.072Z,48.13
2022-12-05T16:46:46.312Z,44.90
2022-12-05T16:49:21.131Z,52.17
2022-12-05T16:51:56.500Z,51.00
2022-12-05T16:54:24.657Z,63.20
2022-12-05T16:56:53.202Z,66.68
2022-12-05T16:59:25.025Z,71.65
2022-12-05T17:01:53.508Z,113.15
2022-12-05T17:04:23.231Z,107.95
2022-12-05T17:06:51.676Z,97.97
2022-12-05T17:09:19.746Z,78.57
2022-12-05T17:11:49.072Z,75.10
2022-12-05T17:14:18.814Z,65.05
2022-12-05T17:19:17.158Z,80.65
2022-12-05T17:21:46.837Z,103.93
2022-12-05T17:24:17.919Z,81.20
2022-12-05T17:26:46.603Z,67.53
2022-12-05T17:29:15.077Z,71.03
2022-12-05T17:31:43.178Z,67.75
2022-12-05T17:34:16.883Z,70.88
2022-12-05T17:36:46.707Z,62.25
2022-12-05T17:39:15.219Z,60.78
2022-12-05T17:41:43.286Z,61.92
2022-12-05T17:44:13.799Z,78.47
2022-12-05T17:46:42.979Z,84.65
2022-12-05T17:49:13.737Z,87.22
2022-12-05T17:52:05.462Z,80.55
2022-12-05T17:54:31.930Z,91.15
2022-12-05T17:57:00.141Z,110.30
2022-12-05T17:59:28.605Z,151.10
2022-12-05T18:01:56.685Z,181.32
2022-12-05T18:04:25.170Z,140.98
2022-12-05T18:06:53.376Z,155.70
2022-12-05T18:09:22.747Z,124.15
2022-12-05T18:11:52.138Z,102.53
2022-12-05T18:14:23.391Z,114.72
2022-12-05T18:16:51.790Z,102.32
2022-12-05T18:19:20.834Z,104.07
2022-12-05T18:21:48.899Z,94.85
2022-12-05T18:24:17.284Z,93.43
2022-12-05T18:26:45.761Z,85.18
2022-12-05T18:29:16.180Z,79.88
2022-12-05T18:31:44.323Z,73.03
2022-12-05T18:34:12.908Z,71.55
2022-12-05T18:36:41.080Z,67.90
2022-12-05T18:39:12.488Z,74.13
2022-12-05T18:41:40.563Z,76.85
2022-12-05T18:44:10.073Z,81.40
2022-12-05T18:46:39.686Z,76.63
2022-12-05T18:49:08.037Z,127.28
2022-12-05T18:51:36.080Z,161.15
2022-12-05T18:54:04.747Z,144.43
2022-12-05T18:56:35.762Z,156.57
2022-12-05T18:59:06.013Z,156.05
2022-12-05T19:01:35.815Z,144.75
2022-12-05T19:04:07.644Z,130.95
2022-12-05T19:06:37.440Z,128.20
2022-12-05T19:09:07.806Z,115.28
2022-12-05T19:11:36.484Z,99.22
2022-12-05T19:14:06.241Z,101.57
2022-12-05T19:16:35.874Z,109.05
2022-12-05T19:19:09.337Z,111.13
2022-12-05T19:21:38.045Z,116.40
2022-12-05T19:24:08.278Z,111.75
2022-12-05T19:26:36.809Z,124.22
2022-12-05T19:29:05.282Z,101.40
2022-12-05T19:31:35.821Z,95.97
2022-12-05T19:34:06.800Z,112.03
2022-12-05T19:36:39.561Z,90.57
2022-12-05T19:39:10.190Z,100.43
2022-12-05T19:41:38.301Z,105.53
2022-12-05T19:44:06.946Z,123.30
2022-12-05T19:46:35.303Z,268.95
2022-12-05T19:49:06.749Z,101.90
2022-12-05T19:51:35.766Z,77.57
2022-12-05T19:54:05.811Z,79.25
2022-12-05T19:56:35.289Z,84.00
2022-12-05T19:59:04.317Z,100.18
2022-12-05T20:01:34.782Z,96.93
2022-12-05T20:04:06.705Z,102.05
2022-12-05T20:06:36.767Z,88.72
2022-12-05T20:09:05.892Z,94.93
2022-12-05T20:11:34.198Z,102.40
2022-12-05T20:14:03.119Z,131.35
2022-12-05T20:16:31.466Z,109.78
2022-12-05T20:19:00.185Z,133.35
2022-12-05T20:21:30.991Z,152.70
2022-12-05T20:24:00.869Z,140.00
2022-12-05T20:26:30.591Z,124.05
2022-12-05T20:29:00.541Z,128.90
2022-12-05T20:31:30.089Z,129.80
2022-12-05T20:33:58.771Z,120.07
2022-12-05T20:36:29.871Z,116.78
2022-12-05T20:41:27.457Z,118.65
2022-12-05T20:43:57.566Z,114.97
2022-12-05T20:46:26.275Z,110.90
2022-12-05T20:48:57.538Z,107.25
2022-12-05T20:51:27.437Z,111.75
2022-12-05T20:53:57.788Z,111.95
2022-12-05T20:56:28.373Z,105.35
2022-12-05T20:58:58.129Z,107.63
2022-12-05T21:01:27.669Z,108.63
2022-12-05T21:03:56.675Z,116.10
2022-12-05T21:06:26.094Z,108.70
2022-12-05T21:08:55.238Z,105.97
2022-12-05T21:11:25.754Z,100.68
2022-12-05T21:13:56.958Z,99.85
2022-12-05T21:16:25.366Z,105.90
2022-12-05T21:18:55.657Z,106.72
2022-12-05T21:21:25.812Z,106.22
2022-12-05T21:23:56.156Z,111.13
2022-12-05T21:26:26.685Z,109.72
2022-12-05T21:28:55.230Z,102.70
2022-12-05T21:31:28.323Z,102.38
2022-12-05T21:33:58.042Z,98.57
2022-12-05T21:36:29.433Z,94.93
2022-12-05T21:38:57.922Z,108.63
2022-12-05T21:41:27.651Z,96.45
2022-12-05T21:43:56.223Z,91.95
2022-12-05T21:46:24.803Z,76.75
2022-12-05T21:48:53.737Z,89.90
2022-12-05T21:51:21.790Z,91.57
2022-12-05T21:53:50.589Z,86.50
2022-12-05T21:56:22.756Z,100.35
2022-12-05T21:58:53.122Z,97.10
2022-12-05T22:01:22.874Z,100.57
2022-12-05T22:03:53.668Z,93.82
2022-12-05T22:06:21.745Z,100.77
2022-12-05T22:08:50.230Z,99.55
2022-12-05T22:11:20.163Z,104.28
2022-12-05T22:13:48.998Z,100.20
2022-12-05T22:16:19.058Z,96.63
2022-12-05T22:18:47.822Z,88.60
2022-12-05T22:21:17.381Z,96.82
2022-12-05T22:23:45.818Z,100.55
2022-12-05T22:26:17.217Z,99.25
2022-12-05T22:28:45.692Z,97.70
2022-12-05T22:31:15.385Z,98.15
2022-12-05T22:33:45.908Z,97.78
2022-12-05T22:36:16.226Z,94.03
2022-12-05T22:38:45.767Z,101.45
2022-12-05T22:41:15.412Z,92.40
2022-12-05T22:43:45.083Z,103.03
2022-12-05T22:46:14.213Z,92.53
2022-12-05T22:48:42.768Z,95.15
2022-12-05T22:51:12.374Z,96.15
2022-12-05T22:53:40.940Z,105.65
2022-12-05T22:56:10.548Z,116.50
2022-12-05T22:58:39.205Z,118.13
2022-12-05T23:01:14.367Z,118.05
2022-12-05T23:03:43.858Z,131.70
2022-12-05T23:06:14.360Z,142.10
2022-12-05T23:08:43.790Z,129.05
2022-12-05T23:11:12.804Z,144.38
2022-12-05T23:13:41.400Z,120.22
2022-12-05T23:16:11.413Z,112.72
2022-12-05T23:18:47.829Z,103.57
2022-12-05T23:21:19.450Z,106.30
2022-12-05T23:23:48.381Z,112.93
2022-12-05T23:26:17.134Z,109.97
2022-12-05T23:28:45.588Z,104.10
2022-12-05T23:31:14.487Z,111.68
2022-12-05T23:33:43.000Z,112.00
2022-12-05T23:36:12.109Z,110.53
2022-12-05T23:38:43.141Z,105.55
2022-12-05T23:41:13.567Z,111.60
2022-12-05T23:43:42.515Z,118.72
2022-12-05T23:46:11.691Z,122.13
2022-12-05T23:48:40.174Z,111.97
2022-12-05T23:51:10.264Z,129.40
2022-12-05T23:53:43.328Z,122.55
2022-12-05T23:56:13.234Z,123.70
2022-12-05T23:58:41.651Z,120.30
